createdAt,value
2023-03-03T00:01:20.711Z,-2.90
2023-03-03T00:03:48.822Z,-2.90
2023-03-03T00:06:16.821Z,-3.00
2023-03-03T00:08:47.120Z,-3.00
2023-03-03T00:11:15.510Z,-3.10
2023-03-03T00:13:47.132Z,-3.10
2023-03-03T00:16:26.401Z,-3.20
2023-03-03T00:18:59.652Z,-3.30
2023-03-03T00:21:32.085Z,-3.30
2023-03-03T00:24:27.589Z,-3.30
2023-03-03T00:26:57.215Z,-3.30
2023-03-03T00:29:30.731Z,-3.40
2023-03-03T00:32:23.972Z,-3.40
2023-03-03T00:34:53.855Z,-3.40
2023-03-03T00:37:30.824Z,-3.50
2023-03-03T00:40:19.795Z,-3.50
2023-03-03T00:42:52.208Z,-3.60
2023-03-03T00:45:30.114Z,-3.60
2023-03-03T00:48:00.187Z,-3.70
2023-03-03T00:50:33.488Z,-3.70
2023-03-03T00:53:07.238Z,-3.70
2023-03-03T00:55:36.891Z,-3.70
2023-03-03T00:58:05.644Z,-3.70
2023-03-03T01:00:38.579Z,-3.70
2023-03-03T01:03:11.936Z,-3.70
2023-03-03T01:05:39.936Z,-3.80
2023-03-03T01:08:08.036Z,-3.80
2023-03-03T01:10:40.074Z,-3.80
2023-03-03T01:13:09.498Z,-3.80
2023-03-03T01:15:42.689Z,-3.80
2023-03-03T01:18:13.158Z,-3.80
2023-03-03T01:20:41.480Z,-3.80
2023-03-03T01:23:09.765Z,-3.80
2023-03-03T01:25:39.721Z,-3.80
2023-03-03T01:28:08.083Z,-3.80
2023-03-03T01:30:36.580Z,-3.90
2023-03-03T01:33:04.786Z,-3.90
2023-03-03T01:35:36.482Z,-3.90
2023-03-03T01:38:04.871Z,-3.90
2023-03-03T01:40:33.363Z,-4.00
2023-03-03T01:43:02.019Z,-4.00
2023-03-03T01:45:31.398Z,-4.00
2023-03-03T01:48:04.275Z,-4.00
2023-03-03T01:50:40.066Z,-4.00
2023-03-03T01:53:15.832Z,-4.00
2023-03-03T01:55:46.095Z,-4.10
2023-03-03T01:58:19.572Z,-4.10
2023-03-03T02:00:51.949Z,-4.20
2023-03-03T02:03:23.388Z,-4.20
2023-03-03T02:05:56.279Z,-4.20
2023-03-03T02:08:43.732Z,-4.20
2023-03-03T02:11:12.357Z,-4.20
2023-03-03T02:13:40.276Z,-4.20
2023-03-03T02:16:10.881Z,-4.20
2023-03-03T02:18:39.614Z,-4.20
2023-03-03T02:21:12.197Z,-4.10
2023-03-03T02:23:48.256Z,-4.10
2023-03-03T02:26:20.531Z,-4.00
2023-03-03T02:28:48.665Z,-4.00
2023-03-03T02:31:20.907Z,-3.90
2023-03-03T02:33:51.005Z,-3.90
2023-03-03T02:36:21.007Z,-3.90
2023-03-03T02:38:54.722Z,-3.80
2023-03-03T02:41:31.542Z,-3.70
2023-03-03T02:44:02.870Z,-3.70
2023-03-03T02:46:35.988Z,-3.60
2023-03-03T02:49:05.268Z,-3.60
2023-03-03T02:51:33.411Z,-3.50
2023-03-03T02:54:02.040Z,-3.40
2023-03-03T02:56:33.946Z,-3.40
2023-03-03T02:59:02.711Z,-3.30
2023-03-03T03:01:37.110Z,-3.30
2023-03-03T03:04:11.207Z,-3.20
2023-03-03T03:06:44.255Z,-3.10
2023-03-03T03:09:14.897Z,-3.00
2023-03-03T03:11:44.912Z,-2.90
2023-03-03T03:14:15.746Z,-2.90
2023-03-03T03:16:45.062Z,-2.80
2023-03-03T03:19:13.244Z,-2.80
2023-03-03T03:21:42.268Z,-2.70
2023-03-03T03:24:11.692Z,-2.70
2023-03-03T03:26:45.233Z,-2.60
2023-03-03T03:29:14.404Z,-2.60
2023-03-03T03:31:43.801Z,-2.60
2023-03-03T03:34:11.857Z,-2.50
2023-03-03T03:36:40.224Z,-2.50
2023-03-03T03:39:09.040Z,-2.50
2023-03-03T03:41:41.172Z,-2.50
2023-03-03T03:44:10.446Z,-2.50
2023-03-03T03:46:39.034Z,-2.40
2023-03-03T03:49:07.822Z,-2.40
2023-03-03T03:51:38.193Z,-2.50
2023-03-03T03:54:06.559Z,-2.50
2023-03-03T03:56:37.034Z,-2.50
2023-03-03T03:59:07.533Z,-2.40
2023-03-03T04:01:37.107Z,-2.40
2023-03-03T04:04:05.477Z,-2.40
2023-03-03T04:06:33.984Z,-2.40
2023-03-03T04:09:03.046Z,-2.40
2023-03-03T04:11:31.910Z,-2.40
2023-03-03T04:14:00.006Z,-2.30
2023-03-03T04:16:28.862Z,-2.40
2023-03-03T04:18:58.497Z,-2.30
2023-03-03T04:21:27.887Z,-2.30
2023-03-03T04:23:58.616Z,-2.20
2023-03-03T04:26:27.966Z,-2.20
2023-03-03T04:28:56.044Z,-2.20
2023-03-03T04:31:25.667Z,-2.20
2023-03-03T04:33:54.433Z,-2.10
2023-03-03T04:36:25.165Z,-2.10
2023-03-03T04:38:53.331Z,-2.10
2023-03-03T04:41:21.786Z,-2.00
2023-03-03T04:43:49.721Z,-2.00
2023-03-03T04:46:18.493Z,-1.90
2023-03-03T04:48:46.595Z,-2.00
2023-03-03T04:51:16.665Z,-2.20
2023-03-03T04:53:47.355Z,-2.10
2023-03-03T04:56:15.450Z,-2.00
2023-03-03T04:58:43.564Z,-2.00
2023-03-03T05:01:14.216Z,-2.00
2023-03-03T05:03:42.837Z,-2.10
2023-03-03T05:06:10.862Z,-2.20
2023-03-03T05:08:38.873Z,-2.10
2023-03-03T05:11:08.075Z,-2.10
2023-03-03T05:13:36.356Z,-2.10
2023-03-03T05:16:04.774Z,-2.00
2023-03-03T05:18:32.853Z,-2.00
2023-03-03T05:21:00.794Z,-2.00
2023-03-03T05:23:29.043Z,-2.20
2023-03-03T05:25:57.216Z,-2.20
2023-03-03T05:28:26.630Z,-2.30
2023-03-03T05:30:54.537Z,-2.20
2023-03-03T05:33:22.632Z,-2.20
2023-03-03T05:35:55.241Z,-2.10
2023-03-03T05:38:23.322Z,-2.00
2023-03-03T05:40:51.485Z,-1.90
2023-03-03T05:43:19.857Z,-1.90
2023-03-03T05:45:49.203Z,-1.90
2023-03-03T05:48:17.215Z,-2.00
2023-03-03T05:50:45.103Z,-2.00
2023-03-03T05:53:13.282Z,-2.00
2023-03-03T05:55:41.347Z,-2.00
2023-03-03T05:58:09.339Z,-2.00
2023-03-03T06:00:37.217Z,-2.00
2023-03-03T06:03:06.515Z,-1.90
2023-03-03T06:05:34.550Z,-2.00
2023-03-03T06:08:02.461Z,-2.00
2023-03-03T06:10:30.387Z,-2.00
2023-03-03T06:13:00.880Z,-2.10
2023-03-03T06:15:28.893Z,-2.10
2023-03-03T06:17:56.833Z,-2.10
2023-03-03T06:20:26.172Z,-2.10
2023-03-03T06:22:54.186Z,-2.10
2023-03-03T06:25:22.339Z,-2.00
2023-03-03T06:27:50.318Z,-1.90
2023-03-03T06:30:19.915Z,-1.80
2023-03-03T06:32:47.973Z,-1.70
2023-03-03T06:35:16.081Z,-1.80
2023-03-03T06:37:45.348Z,-1.80
2023-03-03T06:40:14.100Z,-1.90
2023-03-03T06:42:42.004Z,-1.80
2023-03-03T06:45:10.833Z,-1.70
2023-03-03T06:47:38.706Z,-1.80
2023-03-03T06:50:11.028Z,-1.90
2023-03-03T06:52:39.195Z,-1.80
2023-03-03T06:55:15.421Z,-1.70
2023-03-03T06:57:43.371Z,-1.70
2023-03-03T07:00:20.122Z,-1.60
2023-03-03T07:02:48.575Z,-1.70
2023-03-03T07:05:19.216Z,-1.80
2023-03-03T07:07:47.150Z,-1.70
2023-03-03T07:10:24.380Z,-1.70
2023-03-03T07:12:52.286Z,-1.70
2023-03-03T07:15:24.303Z,-1.60
2023-03-03T07:17:58.139Z,-1.60
2023-03-03T07:20:31.159Z,-1.60
2023-03-03T07:22:59.626Z,-1.50
2023-03-03T07:25:33.228Z,-1.50
2023-03-03T07:28:12.123Z,-1.40
2023-03-03T07:30:40.135Z,-1.30
2023-03-03T07:33:19.356Z,-1.20
2023-03-03T07:35:48.213Z,-1.10
2023-03-03T07:38:27.696Z,-0.90
2023-03-03T07:40:59.115Z,-0.90
2023-03-03T07:43:32.455Z,-0.80
2023-03-03T07:46:12.167Z,-0.70
2023-03-03T07:48:42.196Z,-0.70
2023-03-03T07:51:17.211Z,-0.70
2023-03-03T07:53:45.199Z,-0.60
2023-03-03T07:56:21.965Z,-0.60
2023-03-03T07:58:49.907Z,-0.50
2023-03-03T08:01:40.752Z,-0.50
2023-03-03T08:04:21.750Z,-0.50
2023-03-03T08:06:52.122Z,-0.40
2023-03-03T08:09:36.351Z,-0.30
2023-03-03T08:12:21.327Z,-0.20
2023-03-03T08:14:52.589Z,-0.10
2023-03-03T08:17:22.936Z,0.00
2023-03-03T08:19:52.569Z,0.00
2023-03-03T08:22:26.071Z,0.00
2023-03-03T08:24:54.062Z,-0.10
2023-03-03T08:27:23.763Z,0.00
2023-03-03T08:29:51.766Z,-0.10
2023-03-03T08:32:20.165Z,-0.10
2023-03-03T08:34:48.301Z,0.00
2023-03-03T08:37:16.273Z,0.10
2023-03-03T08:39:44.250Z,0.10
2023-03-03T08:42:12.984Z,0.20
2023-03-03T08:44:43.470Z,0.20
2023-03-03T08:47:11.527Z,0.30
2023-03-03T08:49:40.004Z,0.30
2023-03-03T08:52:09.046Z,0.30
2023-03-03T08:54:37.009Z,0.30
2023-03-03T08:57:06.131Z,0.20
2023-03-03T08:59:37.835Z,0.10
2023-03-03T09:02:08.405Z,0.20
2023-03-03T09:04:36.891Z,0.10
2023-03-03T09:07:05.038Z,0.10
2023-03-03T09:09:32.996Z,0.10
2023-03-03T09:12:09.113Z,0.10
2023-03-03T09:14:39.066Z,0.30
2023-03-03T09:17:25.973Z,0.40
2023-03-03T09:19:56.853Z,0.60
2023-03-03T09:22:27.217Z,0.70
2023-03-03T09:25:00.161Z,0.80
2023-03-03T09:27:38.275Z,0.90
2023-03-03T09:30:27.742Z,1.10
2023-03-03T09:32:58.160Z,1.20
2023-03-03T09:35:37.473Z,1.20
2023-03-03T09:38:21.625Z,1.30
2023-03-03T09:41:03.984Z,1.40
2023-03-03T09:43:40.420Z,1.50
2023-03-03T09:46:21.054Z,1.50
2023-03-03T09:49:01.376Z,1.60
2023-03-03T09:51:49.309Z,1.70
2023-03-03T09:54:29.372Z,1.80
2023-03-03T09:57:07.159Z,1.80
2023-03-03T09:59:48.436Z,1.80
2023-03-03T10:02:36.992Z,1.80
2023-03-03T10:05:17.240Z,1.80
2023-03-03T10:07:56.252Z,1.90
2023-03-03T10:10:43.482Z,1.90
2023-03-03T10:13:22.055Z,1.90
2023-03-03T10:16:02.526Z,2.00
2023-03-03T10:18:36.006Z,2.10
2023-03-03T10:21:11.768Z,2.00
2023-03-03T10:23:59.004Z,1.90
2023-03-03T10:27:01.319Z,1.70
2023-03-03T10:29:44.886Z,1.70
2023-03-03T10:32:36.716Z,1.60
2023-03-03T10:35:24.203Z,1.60
2023-03-03T10:38:06.997Z,1.60
2023-03-03T10:40:39.977Z,1.70
2023-03-03T10:43:31.662Z,1.70
2023-03-03T10:46:23.511Z,1.50
2023-03-03T10:49:03.902Z,1.40
2023-03-03T10:51:45.218Z,1.30
2023-03-03T10:54:32.274Z,1.40
2023-03-03T10:57:08.571Z,1.60
2023-03-03T10:59:54.978Z,1.70
2023-03-03T11:02:27.894Z,1.90
2023-03-03T11:05:13.317Z,2.00
2023-03-03T11:07:45.921Z,2.10
2023-03-03T11:10:35.702Z,2.20
2023-03-03T11:13:16.484Z,2.30
2023-03-03T11:16:23.458Z,2.30
2023-03-03T11:19:06.663Z,2.40
2023-03-03T11:21:42.822Z,2.50
2023-03-03T11:24:27.781Z,2.50
2023-03-03T11:27:18.850Z,2.50
2023-03-03T11:30:02.587Z,2.50
2023-03-03T11:32:42.774Z,2.50
2023-03-03T11:35:23.304Z,2.50
2023-03-03T11:38:03.879Z,2.50
2023-03-03T11:40:41.084Z,2.50
2023-03-03T11:43:33.932Z,2.60
2023-03-03T11:46:07.939Z,2.60
2023-03-03T11:48:42.009Z,2.50
2023-03-03T11:51:14.181Z,2.50
2023-03-03T11:53:53.957Z,2.60
2023-03-03T11:56:25.716Z,2.60
2023-03-03T11:59:06.380Z,2.60
2023-03-03T12:01:40.363Z,2.50
2023-03-03T12:04:13.641Z,2.40
2023-03-03T12:07:18.537Z,2.20
2023-03-03T12:09:58.241Z,1.60
2023-03-03T12:12:33.482Z,1.60
2023-03-03T12:15:16.723Z,1.50
2023-03-03T12:18:14.060Z,1.20
2023-03-03T12:20:51.182Z,1.40
2023-03-03T12:23:37.276Z,1.50
2023-03-03T12:26:10.024Z,1.70
2023-03-03T12:28:42.027Z,1.90
2023-03-03T12:31:33.228Z,2.00
2023-03-03T12:34:06.284Z,1.80
2023-03-03T12:36:59.227Z,1.90
2023-03-03T12:39:41.277Z,2.00
2023-03-03T12:42:17.850Z,2.20
2023-03-03T12:44:52.105Z,2.30
2023-03-03T12:47:28.779Z,2.50
2023-03-03T12:50:12.305Z,2.40
2023-03-03T12:52:52.165Z,2.60
2023-03-03T12:55:29.714Z,2.70
2023-03-03T12:58:10.087Z,2.80
2023-03-03T13:00:51.039Z,2.90
2023-03-03T13:03:37.076Z,2.90
2023-03-03T13:06:20.008Z,2.90
2023-03-03T13:09:03.074Z,3.00
2023-03-03T13:11:53.043Z,3.10
2023-03-03T13:14:34.031Z,3.10
2023-03-03T13:17:10.588Z,3.10
2023-03-03T13:19:44.072Z,3.10
2023-03-03T13:22:18.639Z,3.10
2023-03-03T13:24:59.458Z,3.10
2023-03-03T13:27:33.275Z,2.90
2023-03-03T13:30:04.633Z,2.50
2023-03-03T13:32:42.404Z,2.40
2023-03-03T13:35:25.409Z,2.50
2023-03-03T13:37:56.553Z,2.60
2023-03-03T13:40:27.886Z,2.60
2023-03-03T13:43:01.741Z,2.60
2023-03-03T13:45:37.649Z,2.60
2023-03-03T13:48:16.268Z,2.70
2023-03-03T13:50:52.010Z,2.70
2023-03-03T13:53:43.414Z,2.70
2023-03-03T13:56:22.612Z,2.70
2023-03-03T13:59:00.413Z,2.70
2023-03-03T14:01:33.936Z,2.70
2023-03-03T14:04:07.566Z,2.70
2023-03-03T14:06:38.863Z,2.60
2023-03-03T14:09:23.660Z,2.50
2023-03-03T14:11:57.644Z,2.60
2023-03-03T14:14:48.146Z,2.50
2023-03-03T14:17:24.482Z,2.50
2023-03-03T14:20:02.279Z,2.50
2023-03-03T14:22:43.246Z,2.50
2023-03-03T14:25:12.978Z,2.40
2023-03-03T14:28:01.186Z,2.40
2023-03-03T14:30:35.697Z,2.30
2023-03-03T14:33:20.964Z,2.30
2023-03-03T14:36:03.010Z,2.30
2023-03-03T14:38:51.688Z,2.00
2023-03-03T14:41:23.517Z,1.70
2023-03-03T14:44:01.168Z,1.40
2023-03-03T14:46:39.628Z,1.30
2023-03-03T14:49:14.806Z,1.30
2023-03-03T14:51:46.389Z,1.20
2023-03-03T14:54:29.443Z,1.30
2023-03-03T14:57:01.319Z,1.30
2023-03-03T14:59:29.873Z,1.40
2023-03-03T15:02:28.363Z,1.40
2023-03-03T15:05:14.933Z,1.30
2023-03-03T15:07:43.487Z,1.30
2023-03-03T15:10:14.096Z,1.30
2023-03-03T15:12:43.438Z,1.30
2023-03-03T15:15:20.519Z,1.30
2023-03-03T15:17:58.015Z,1.30
2023-03-03T15:20:35.526Z,1.10
2023-03-03T15:23:31.709Z,1.10
2023-03-03T15:26:05.550Z,1.10
2023-03-03T15:28:46.571Z,1.10
2023-03-03T15:31:30.292Z,1.10
2023-03-03T15:34:05.235Z,1.00
2023-03-03T15:36:40.281Z,1.00
2023-03-03T15:39:20.899Z,1.00
2023-03-03T15:41:59.856Z,1.00
2023-03-03T15:44:34.985Z,1.00
2023-03-03T15:47:28.099Z,0.90
2023-03-03T15:50:07.220Z,0.80
2023-03-03T15:52:46.533Z,0.80
2023-03-03T15:55:27.379Z,0.70
2023-03-03T15:58:08.290Z,0.80
2023-03-03T16:00:42.139Z,0.80
2023-03-03T16:03:15.301Z,0.80
2023-03-03T16:05:53.439Z,0.80
2023-03-03T16:08:25.915Z,0.70
2023-03-03T16:11:04.920Z,0.70
2023-03-03T16:13:47.487Z,0.60
2023-03-03T16:16:26.562Z,0.60
2023-03-03T16:19:05.960Z,0.60
2023-03-03T16:21:55.724Z,0.60
2023-03-03T16:24:36.167Z,0.60
2023-03-03T16:27:15.791Z,0.40
2023-03-03T16:29:53.721Z,0.40
2023-03-03T16:32:28.888Z,0.30
2023-03-03T16:34:58.856Z,0.30
2023-03-03T16:37:32.768Z,0.30
2023-03-03T16:40:08.531Z,0.40
2023-03-03T16:42:36.479Z,0.40
2023-03-03T16:45:22.776Z,0.40
2023-03-03T16:48:20.980Z,0.40
2023-03-03T16:50:57.150Z,0.20
2023-03-03T16:53:44.054Z,0.20
2023-03-03T16:56:19.183Z,0.00
2023-03-03T16:59:00.038Z,-0.10
2023-03-03T17:01:40.362Z,-0.30
2023-03-03T17:04:15.363Z,-0.30
2023-03-03T17:06:51.054Z,-0.30
2023-03-03T17:09:43.177Z,-0.30
2023-03-03T17:12:52.881Z,-0.30
2023-03-03T17:15:39.854Z,-0.30
2023-03-03T17:18:15.647Z,-0.30
2023-03-03T17:20:50.053Z,-0.30
2023-03-03T17:23:40.774Z,-0.20
2023-03-03T17:26:18.032Z,-0.20
2023-03-03T17:28:55.676Z,-0.20
2023-03-03T17:31:34.973Z,-0.10
2023-03-03T17:34:31.532Z,-0.10
2023-03-03T17:37:09.756Z,-0.10
2023-03-03T17:40:04.688Z,-0.10
2023-03-03T17:42:42.157Z,-0.10
2023-03-03T17:45:13.055Z,-0.20
2023-03-03T17:48:27.039Z,-0.20
2023-03-03T17:51:11.033Z,-0.20
2023-03-03T17:53:51.939Z,-0.30
2023-03-03T17:56:24.989Z,-0.30
2023-03-03T17:59:31.572Z,-0.30
2023-03-03T18:02:48.988Z,-0.40
2023-03-03T18:05:33.064Z,-0.50
2023-03-03T18:08:22.617Z,-0.60
2023-03-03T18:11:27.710Z,-0.70
2023-03-03T18:14:11.072Z,-0.70
2023-03-03T18:16:55.139Z,-0.70
2023-03-03T18:19:43.813Z,-0.60
2023-03-03T18:22:14.681Z,-0.60
2023-03-03T18:25:00.788Z,-0.60
2023-03-03T18:27:35.208Z,-0.60
2023-03-03T18:30:21.363Z,-0.60
2023-03-03T18:33:10.636Z,-0.60
2023-03-03T18:35:40.624Z,-0.60
2023-03-03T18:38:39.226Z,-0.50
2023-03-03T18:41:11.961Z,-0.60
2023-03-03T18:43:54.709Z,-0.60
2023-03-03T18:46:54.839Z,-0.60
2023-03-03T18:49:53.543Z,-0.70
2023-03-03T18:52:25.920Z,-0.80
2023-03-03T18:55:29.767Z,-0.80
2023-03-03T18:58:33.870Z,-0.70
2023-03-03T19:01:20.926Z,-0.80
2023-03-03T19:04:13.330Z,-0.70
2023-03-03T19:07:16.706Z,-0.80
2023-03-03T19:09:51.492Z,-0.70
2023-03-03T19:12:40.223Z,-0.70
2023-03-03T19:15:56.906Z,-0.80
2023-03-03T19:18:28.202Z,-0.80
2023-03-03T19:20:59.678Z,-0.80
2023-03-03T19:23:47.431Z,-0.80
2023-03-03T19:26:57.375Z,-0.80
2023-03-03T19:29:46.075Z,-0.80
2023-03-03T19:32:30.408Z,-0.80
2023-03-03T19:35:33.839Z,-0.80
2023-03-03T19:38:12.365Z,-0.80
2023-03-03T19:40:49.037Z,-0.80
2023-03-03T19:43:27.320Z,-0.80
2023-03-03T19:46:07.651Z,-0.80
2023-03-03T19:48:41.560Z,-0.80
2023-03-03T19:51:19.386Z,-0.90
2023-03-03T19:53:56.613Z,-0.90
2023-03-03T19:56:34.914Z,-0.90
2023-03-03T19:59:15.597Z,-0.90
2023-03-03T20:02:16.889Z,-0.90
2023-03-03T20:04:59.923Z,-1.00
2023-03-03T20:07:35.686Z,-1.00
2023-03-03T20:10:35.465Z,-1.00
2023-03-03T20:13:13.630Z,-1.00
2023-03-03T20:15:52.831Z,-1.20
2023-03-03T20:19:09.479Z,-1.30
2023-03-03T20:21:43.055Z,-1.30
2023-03-03T20:24:42.389Z,-1.30
2023-03-03T20:27:16.534Z,-1.40
2023-03-03T20:30:12.492Z,-1.30
2023-03-03T20:32:55.727Z,-1.30
2023-03-03T20:35:33.992Z,-1.40
2023-03-03T20:38:12.851Z,-1.50
2023-03-03T20:40:49.389Z,-1.40
2023-03-03T20:43:34.990Z,-1.50
2023-03-03T20:46:14.419Z,-1.50
2023-03-03T20:49:12.706Z,-1.40
2023-03-03T20:51:47.318Z,-1.30
2023-03-03T20:54:24.828Z,-1.30
2023-03-03T20:57:03.394Z,-1.30
2023-03-03T20:59:37.156Z,-1.40
2023-03-03T21:02:20.483Z,-1.50
2023-03-03T21:05:09.511Z,-1.50
2023-03-03T21:07:41.133Z,-1.60
2023-03-03T21:10:16.525Z,-1.50
2023-03-03T21:12:46.088Z,-1.50
2023-03-03T21:15:28.939Z,-1.50
2023-03-03T21:17:58.230Z,-1.50
2023-03-03T21:20:30.344Z,-1.40
2023-03-03T21:22:59.701Z,-1.40
2023-03-03T21:25:48.113Z,-1.40
2023-03-03T21:28:24.009Z,-1.40
2023-03-03T21:31:07.496Z,-1.40
2023-03-03T21:33:57.724Z,-1.40
2023-03-03T21:36:46.212Z,-1.40
2023-03-03T21:39:23.161Z,-1.40
2023-03-03T21:41:52.988Z,-1.50
2023-03-03T21:44:34.264Z,-1.50
2023-03-03T21:47:03.000Z,-1.50
2023-03-03T21:49:30.988Z,-1.40
2023-03-03T21:51:59.481Z,-1.50
2023-03-03T21:54:27.604Z,-1.50
2023-03-03T21:56:55.572Z,-1.50
2023-03-03T21:59:23.641Z,-1.50
2023-03-03T22:01:53.011Z,-1.60
2023-03-03T22:04:21.291Z,-1.60
2023-03-03T22:06:49.372Z,-1.60
2023-03-03T22:09:17.518Z,-1.60
2023-03-03T22:11:45.912Z,-1.50
2023-03-03T22:14:14.005Z,-1.60
2023-03-03T22:16:42.615Z,-1.60
2023-03-03T22:19:12.045Z,-1.60
2023-03-03T22:21:41.306Z,-1.70
2023-03-03T22:24:10.226Z,-1.70
2023-03-03T22:26:38.271Z,-1.80
2023-03-03T22:29:07.149Z,-1.80
2023-03-03T22:31:35.192Z,-1.80
2023-03-03T22:34:04.544Z,-1.70
2023-03-03T22:36:34.030Z,-1.70
2023-03-03T22:39:02.043Z,-1.70
2023-03-03T22:41:30.070Z,-1.70
2023-03-03T22:43:57.982Z,-1.70
2023-03-03T22:46:26.148Z,-1.70
2023-03-03T22:48:54.143Z,-1.80
2023-03-03T22:51:22.510Z,-1.70
2023-03-03T22:53:51.796Z,-1.70
2023-03-03T22:56:19.854Z,-1.70
2023-03-03T22:58:47.919Z,-1.70
2023-03-03T23:01:16.448Z,-1.70
2023-03-03T23:03:44.422Z,-1.70
2023-03-03T23:06:12.439Z,-1.70
2023-03-03T23:08:40.423Z,-1.70
2023-03-03T23:11:09.831Z,-1.70
2023-03-03T23:13:37.978Z,-1.80
2023-03-03T23:16:06.840Z,-1.80
2023-03-03T23:18:34.980Z,-1.70
2023-03-03T23:21:02.968Z,-1.70
2023-03-03T23:23:31.335Z,-1.70
2023-03-03T23:25:59.263Z,-1.70
2023-03-03T23:28:28.620Z,-1.60
2023-03-03T23:30:56.673Z,-1.60
2023-03-03T23:33:24.643Z,-1.60
2023-03-03T23:35:52.935Z,-1.60
2023-03-03T23:38:20.957Z,-1.60
2023-03-03T23:40:48.920Z,-1.60
2023-03-03T23:43:16.866Z,-1.60
2023-03-03T23:45:46.243Z,-1.60
2023-03-03T23:48:14.222Z,-1.60
2023-03-03T23:50:42.252Z,-1.70
2023-03-03T23:53:10.283Z,-1.70
2023-03-03T23:55:38.291Z,-1.60
2023-03-03T23:58:06.734Z,-1.60
